createdAt,value
2024-03-02T00:00:52.930Z,5.99
2024-03-02T00:03:20.475Z,6.06
2024-03-02T00:05:53.077Z,6.04
2024-03-02T00:08:30.451Z,6.09
2024-03-02T00:11:02.113Z,6.16
2024-03-02T00:13:31.045Z,6.19
2024-03-02T00:15:58.345Z,6.35
2024-03-02T00:18:36.602Z,6.42
2024-03-02T00:21:04.660Z,6.51
2024-03-02T00:23:32.601Z,6.62
2024-03-02T00:26:01.322Z,6.56
2024-03-02T00:28:35.899Z,6.66
2024-03-02T00:31:12.606Z,6.69
2024-03-02T00:33:43.814Z,6.77
2024-03-02T00:36:12.049Z,6.76
2024-03-02T00:38:48.925Z,6.78
2024-03-02T00:41:24.265Z,6.69
2024-03-02T00:44:02.008Z,6.60
2024-03-02T00:46:32.374Z,6.66
2024-03-02T00:49:01.413Z,6.61
2024-03-02T00:51:31.466Z,6.53
2024-03-02T00:54:05.589Z,6.43
2024-03-02T00:56:33.968Z,6.32
2024-03-02T00:59:00.645Z,6.20
2024-03-02T01:01:27.321Z,6.08
2024-03-02T01:03:54.352Z,6.03
2024-03-02T01:06:21.263Z,5.94
2024-03-02T01:08:52.191Z,5.97
2024-03-02T01:11:19.526Z,5.88
2024-03-02T01:13:47.505Z,5.85
2024-03-02T01:16:14.646Z,5.85
2024-03-02T01:18:41.453Z,5.86
2024-03-02T01:21:08.449Z,5.85
2024-03-02T01:23:35.032Z,5.74
2024-03-02T01:26:01.672Z,5.58
2024-03-02T01:28:28.921Z,5.59
2024-03-02T01:30:55.687Z,5.58
2024-03-02T01:33:22.569Z,5.65
2024-03-02T01:35:49.183Z,5.53
2024-03-02T01:38:15.833Z,5.50
2024-03-02T01:40:43.401Z,5.36
2024-03-02T01:43:10.032Z,5.42
2024-03-02T01:45:38.313Z,5.41
2024-03-02T01:48:07.976Z,5.47
2024-03-02T01:50:35.585Z,5.48
2024-03-02T01:53:04.241Z,5.43
2024-03-02T01:55:31.856Z,5.47
2024-03-02T01:57:59.393Z,5.53
2024-03-02T02:00:28.049Z,5.46
2024-03-02T02:02:56.209Z,5.63
2024-03-02T02:05:23.320Z,5.70
2024-03-02T02:07:50.422Z,5.73
2024-03-02T02:10:17.281Z,5.82
2024-03-02T02:12:43.964Z,5.85
2024-03-02T02:15:28.564Z,5.76
2024-03-02T02:17:56.702Z,5.84
2024-03-02T02:20:24.578Z,5.82
2024-03-02T02:23:03.446Z,5.87
2024-03-02T02:25:31.031Z,5.93
2024-03-02T02:27:59.292Z,5.94
2024-03-02T02:30:31.346Z,6.02
2024-03-02T02:32:59.349Z,5.93
2024-03-02T02:35:26.371Z,5.88
2024-03-02T02:37:54.010Z,5.83
2024-03-02T02:40:20.835Z,5.79
2024-03-02T02:42:48.362Z,5.85
2024-03-02T02:45:16.396Z,5.84
2024-03-02T02:47:43.907Z,5.66
2024-03-02T02:50:12.340Z,5.71
2024-03-02T02:52:41.654Z,5.60
2024-03-02T02:55:10.522Z,5.61
2024-03-02T02:57:39.150Z,5.66
2024-03-02T03:00:24.247Z,5.76
2024-03-02T03:02:51.739Z,5.74
2024-03-02T03:05:19.380Z,5.80
2024-03-02T03:07:46.475Z,5.76
2024-03-02T03:10:14.730Z,5.60
2024-03-02T03:12:43.200Z,5.53
2024-03-02T03:15:11.117Z,5.38
2024-03-02T03:17:38.884Z,5.45
2024-03-02T03:20:07.081Z,5.45
2024-03-02T03:22:33.976Z,5.32
2024-03-02T03:25:01.012Z,5.29
2024-03-02T03:27:27.874Z,5.31
2024-03-02T03:29:55.525Z,5.30
2024-03-02T03:32:22.886Z,5.26
2024-03-02T03:34:49.869Z,5.26
2024-03-02T03:37:16.702Z,5.24
2024-03-02T03:39:43.456Z,5.22
2024-03-02T03:42:10.175Z,5.37
2024-03-02T03:44:36.862Z,5.20
2024-03-02T03:47:03.972Z,5.20
2024-03-02T03:49:30.677Z,5.26
2024-03-02T03:51:57.389Z,5.22
2024-03-02T03:54:24.105Z,5.24
2024-03-02T03:56:50.753Z,5.25
2024-03-02T03:59:17.540Z,5.24
2024-03-02T04:01:44.253Z,5.01
2024-03-02T04:04:11.047Z,5.01
2024-03-02T04:06:37.804Z,5.13
2024-03-02T04:09:05.186Z,5.13
2024-03-02T04:11:32.272Z,5.32
2024-03-02T04:13:59.195Z,5.43
2024-03-02T04:16:25.986Z,5.41
2024-03-02T04:18:52.893Z,5.53
2024-03-02T04:21:19.524Z,5.59
2024-03-02T04:23:46.182Z,5.52
2024-03-02T04:26:12.844Z,5.51
2024-03-02T04:28:39.455Z,5.56
2024-03-02T04:31:06.160Z,5.66
2024-03-02T04:33:32.998Z,5.79
2024-03-02T04:35:59.573Z,5.84
2024-03-02T04:38:26.162Z,5.91
2024-03-02T04:40:52.780Z,5.94
2024-03-02T04:43:20.406Z,5.99
2024-03-02T04:45:47.191Z,5.94
2024-03-02T04:48:15.147Z,6.10
2024-03-02T04:50:42.057Z,6.15
2024-03-02T04:53:09.115Z,6.16
2024-03-02T04:55:35.858Z,6.26
2024-03-02T04:58:02.603Z,6.26
2024-03-02T05:00:29.395Z,6.34
2024-03-02T05:02:56.104Z,6.42
2024-03-02T05:05:22.733Z,6.49
2024-03-02T05:07:49.447Z,6.58
2024-03-02T05:10:16.683Z,6.44
2024-03-02T05:12:43.510Z,6.51
2024-03-02T05:15:14.515Z,6.39
2024-03-02T05:17:44.340Z,6.59
2024-03-02T05:20:12.046Z,6.56
2024-03-02T05:22:38.986Z,6.61
2024-03-02T05:25:06.517Z,6.49
2024-03-02T05:27:34.226Z,6.55
2024-03-02T05:30:01.461Z,6.64
2024-03-02T05:32:28.508Z,6.60
2024-03-02T05:34:56.200Z,6.50
2024-03-02T05:37:22.987Z,6.53
2024-03-02T05:39:49.771Z,6.41
2024-03-02T05:42:18.170Z,6.50
2024-03-02T05:44:44.847Z,6.53
2024-03-02T05:47:11.491Z,6.50
2024-03-02T05:49:38.166Z,6.34
2024-03-02T05:52:04.934Z,6.37
2024-03-02T05:54:31.568Z,6.42
2024-03-02T05:56:58.226Z,6.34
2024-03-02T05:59:24.825Z,6.40
2024-03-02T06:01:54.477Z,6.37
2024-03-02T06:04:21.178Z,6.36
2024-03-02T06:06:47.850Z,6.43
2024-03-02T06:09:14.647Z,6.37
2024-03-02T06:11:42.554Z,6.39
2024-03-02T06:14:10.311Z,6.34
2024-03-02T06:16:36.993Z,6.38
2024-03-02T06:19:04.087Z,6.41
2024-03-02T06:21:31.131Z,6.41
2024-03-02T06:23:58.190Z,6.24
2024-03-02T06:26:26.147Z,6.04
2024-03-02T06:28:53.532Z,5.87
2024-03-02T06:31:20.377Z,5.85
2024-03-02T06:33:47.251Z,5.87
2024-03-02T06:36:14.052Z,6.04
2024-03-02T06:38:43.908Z,6.17
2024-03-02T06:41:10.841Z,6.30
2024-03-02T06:43:37.599Z,6.39
2024-03-02T06:46:04.590Z,6.19
2024-03-02T06:48:31.682Z,6.15
2024-03-02T06:50:59.579Z,6.20
2024-03-02T06:53:26.702Z,5.95
2024-03-02T06:55:53.502Z,5.97
2024-03-02T06:58:20.184Z,5.93
2024-03-02T07:00:46.845Z,6.10
2024-03-02T07:03:13.840Z,6.01
2024-03-02T07:05:40.717Z,6.16
2024-03-02T07:08:07.579Z,6.30
2024-03-02T07:10:34.213Z,6.49
2024-03-02T07:13:01.259Z,6.66
2024-03-02T07:15:28.400Z,6.73
2024-03-02T07:17:55.344Z,6.86
2024-03-02T07:20:21.888Z,6.83
2024-03-02T07:22:48.628Z,6.94
2024-03-02T07:27:45.325Z,6.68
2024-03-02T07:30:15.510Z,6.57
2024-03-02T07:32:43.396Z,6.60
2024-03-02T07:35:10.061Z,6.64
2024-03-02T07:37:36.807Z,6.56
2024-03-02T07:40:04.201Z,6.69
2024-03-02T07:42:31.066Z,6.99
2024-03-02T07:44:57.729Z,7.29
2024-03-02T07:47:24.623Z,7.40
2024-03-02T07:49:51.174Z,7.69
2024-03-02T07:52:17.784Z,7.69
2024-03-02T07:54:44.882Z,7.74
2024-03-02T07:57:11.887Z,7.94
2024-03-02T07:59:39.630Z,7.98
2024-03-02T08:02:06.643Z,8.01
2024-03-02T08:04:33.266Z,8.14
2024-03-02T08:07:00.183Z,8.25
2024-03-02T08:09:27.106Z,8.47
2024-03-02T08:11:53.766Z,8.44
2024-03-02T08:14:20.562Z,8.46
2024-03-02T08:16:47.141Z,8.66
2024-03-02T08:19:14.022Z,8.71
2024-03-02T08:21:40.738Z,9.15
2024-03-02T08:24:08.038Z,9.04
2024-03-02T08:26:35.248Z,8.99
2024-03-02T08:29:04.981Z,8.66
2024-03-02T08:31:31.916Z,8.83
2024-03-02T08:33:58.720Z,8.76
2024-03-02T08:36:25.585Z,8.86
2024-03-02T08:38:52.641Z,8.92
2024-03-02T08:41:19.586Z,8.50
2024-03-02T08:43:46.282Z,8.71
2024-03-02T08:46:12.996Z,9.07
2024-03-02T08:48:39.609Z,9.21
2024-03-02T08:51:08.855Z,9.55
2024-03-02T08:53:35.589Z,9.62
2024-03-02T08:56:03.347Z,9.86
2024-03-02T08:58:30.459Z,9.59
2024-03-02T09:00:57.192Z,9.80
2024-03-02T09:03:23.807Z,9.78
2024-03-02T09:05:50.455Z,9.98
2024-03-02T09:08:17.121Z,10.21
2024-03-02T09:10:44.904Z,10.13
2024-03-02T09:13:11.721Z,10.38
2024-03-02T09:15:40.945Z,9.96
2024-03-02T09:18:08.050Z,9.95
2024-03-02T09:20:35.115Z,9.83
2024-03-02T09:23:01.817Z,10.09
2024-03-02T09:25:28.679Z,10.43
2024-03-02T09:27:55.596Z,10.35
2024-03-02T09:30:22.311Z,10.48
2024-03-02T09:32:50.577Z,10.66
2024-03-02T09:35:17.517Z,10.93
2024-03-02T09:37:44.065Z,10.42
2024-03-02T09:40:11.424Z,10.36
2024-03-02T09:42:38.516Z,10.15
2024-03-02T09:45:06.240Z,10.26
2024-03-02T09:47:33.028Z,10.52
2024-03-02T09:50:00.489Z,10.77
2024-03-02T09:52:27.508Z,10.73
2024-03-02T09:54:54.331Z,10.48
2024-03-02T09:57:21.049Z,10.72
2024-03-02T09:59:47.607Z,10.94
2024-03-02T10:02:14.201Z,10.72
2024-03-02T10:04:40.888Z,10.55
2024-03-02T10:07:12.860Z,10.47
2024-03-02T10:09:40.117Z,10.18
2024-03-02T10:12:08.743Z,10.20
2024-03-02T10:14:35.982Z,10.46
2024-03-02T10:17:04.766Z,10.16
2024-03-02T10:19:36.063Z,10.18
2024-03-02T10:22:04.932Z,10.51
2024-03-02T10:24:38.918Z,10.44
2024-03-02T10:27:23.945Z,10.61
2024-03-02T10:29:50.980Z,10.57
2024-03-02T10:32:18.034Z,10.97
2024-03-02T10:34:50.779Z,11.30
2024-03-02T10:37:18.801Z,10.85
2024-03-02T10:39:47.635Z,11.02
2024-03-02T10:42:15.837Z,11.39
2024-03-02T10:44:44.003Z,11.48
2024-03-02T10:47:13.736Z,11.67
2024-03-02T10:49:44.928Z,11.32
2024-03-02T10:52:11.733Z,10.52
2024-03-02T10:54:40.874Z,10.48
2024-03-02T10:57:10.914Z,10.56
2024-03-02T10:59:46.059Z,11.27
2024-03-02T11:02:14.946Z,11.01
2024-03-02T11:04:43.208Z,11.13
2024-03-02T11:07:12.192Z,11.16
2024-03-02T11:10:01.001Z,10.98
2024-03-02T11:12:33.042Z,11.18
2024-03-02T11:15:01.444Z,11.08
2024-03-02T11:17:29.292Z,11.18
2024-03-02T11:19:56.445Z,11.31
2024-03-02T11:22:23.260Z,11.69
2024-03-02T11:24:51.260Z,11.78
2024-03-02T11:27:47.251Z,11.57
2024-03-02T11:30:32.821Z,12.05
2024-03-02T11:33:11.912Z,11.86
2024-03-02T11:35:50.229Z,11.80
2024-03-02T11:38:17.050Z,11.80
2024-03-02T11:40:44.128Z,11.56
2024-03-02T11:43:12.440Z,11.58
2024-03-02T11:45:42.528Z,11.84
2024-03-02T11:48:13.927Z,11.92
2024-03-02T11:50:50.061Z,12.13
2024-03-02T11:53:18.197Z,11.92
2024-03-02T11:55:48.123Z,11.99
2024-03-02T11:58:15.886Z,11.97
2024-03-02T12:00:42.697Z,12.15
2024-03-02T12:03:13.508Z,12.07
2024-03-02T12:05:40.578Z,12.00
2024-03-02T12:08:08.298Z,11.97
2024-03-02T12:10:37.397Z,12.16
2024-03-02T12:13:07.762Z,11.86
2024-03-02T12:15:38.008Z,11.80
2024-03-02T12:18:06.178Z,11.66
2024-03-02T12:20:34.215Z,11.46
2024-03-02T12:23:03.608Z,11.40
2024-03-02T12:25:32.875Z,11.52
2024-03-02T12:28:02.168Z,11.68
2024-03-02T12:30:31.682Z,11.77
2024-03-02T12:32:59.200Z,12.03
2024-03-02T12:35:26.715Z,12.64
2024-03-02T12:37:54.982Z,12.50
2024-03-02T12:40:24.067Z,12.48
2024-03-02T12:42:52.482Z,12.40
2024-03-02T12:45:26.162Z,12.21
2024-03-02T12:47:53.700Z,11.97
2024-03-02T12:50:21.434Z,12.16
2024-03-02T12:52:54.696Z,12.20
2024-03-02T12:55:26.028Z,12.30
2024-03-02T12:57:53.862Z,12.19
2024-03-02T13:00:23.744Z,12.31
2024-03-02T13:02:53.009Z,12.29
2024-03-02T13:05:21.249Z,12.18
2024-03-02T13:07:49.630Z,12.31
2024-03-02T13:10:17.009Z,12.15
2024-03-02T13:12:43.824Z,11.98
2024-03-02T13:15:14.277Z,11.87
2024-03-02T13:17:42.964Z,11.95
2024-03-02T13:20:11.959Z,11.99
2024-03-02T13:22:39.173Z,11.81
2024-03-02T13:25:07.363Z,11.82
2024-03-02T13:27:34.671Z,12.14
2024-03-02T13:30:02.565Z,12.27
2024-03-02T13:32:29.225Z,12.18
2024-03-02T13:34:55.792Z,12.10
2024-03-02T13:37:22.860Z,12.28
2024-03-02T13:39:50.086Z,12.24
2024-03-02T13:42:17.495Z,12.53
2024-03-02T13:44:49.424Z,12.94
2024-03-02T13:47:16.834Z,12.72
2024-03-02T13:49:48.299Z,12.47
2024-03-02T13:52:16.264Z,12.33
2024-03-02T13:54:46.597Z,11.99
2024-03-02T13:57:13.831Z,11.94
2024-03-02T13:59:42.159Z,11.96
2024-03-02T14:02:09.904Z,11.89
2024-03-02T14:04:37.244Z,11.59
2024-03-02T14:07:04.477Z,11.59
2024-03-02T14:09:31.420Z,11.50
2024-03-02T14:11:58.862Z,11.51
2024-03-02T14:14:25.796Z,11.44
2024-03-02T14:16:52.963Z,11.61
2024-03-02T14:19:19.694Z,11.43
2024-03-02T14:21:46.923Z,11.36
2024-03-02T14:24:13.690Z,11.49
2024-03-02T14:26:40.348Z,11.44
2024-03-02T14:29:07.006Z,11.60
2024-03-02T14:31:33.822Z,11.70
2024-03-02T14:34:01.528Z,11.72
2024-03-02T14:36:29.445Z,11.68
2024-03-02T14:38:56.918Z,11.76
2024-03-02T14:41:25.584Z,11.71
2024-03-02T14:43:53.208Z,11.61
2024-03-02T14:46:20.497Z,11.67
2024-03-02T14:48:47.761Z,11.71
2024-03-02T14:51:15.232Z,11.86
2024-03-02T14:53:42.756Z,11.96
2024-03-02T14:56:09.784Z,11.94
2024-03-02T14:58:39.412Z,12.35
2024-03-02T15:01:10.216Z,12.52
2024-03-02T15:03:37.175Z,12.53
2024-03-02T15:06:05.401Z,12.11
2024-03-02T15:08:32.360Z,11.95
2024-03-02T15:11:00.772Z,11.91
2024-03-02T15:13:27.725Z,11.98
2024-03-02T15:15:54.611Z,11.87
2024-03-02T15:18:21.405Z,11.92
2024-03-02T15:20:48.137Z,11.96
2024-03-02T15:23:14.832Z,11.83
2024-03-02T15:25:42.179Z,11.85
2024-03-02T15:28:09.378Z,11.85
2024-03-02T15:30:36.222Z,11.83
2024-03-02T15:33:03.130Z,11.78
2024-03-02T15:35:29.843Z,11.79
2024-03-02T15:37:56.440Z,11.85
2024-03-02T15:40:23.233Z,11.85
2024-03-02T15:42:49.936Z,11.78
2024-03-02T15:45:16.579Z,11.84
2024-03-02T15:47:43.417Z,11.89
2024-03-02T15:50:10.586Z,11.78
2024-03-02T15:52:37.558Z,11.79
2024-03-02T15:55:06.925Z,11.85
2024-03-02T15:57:34.165Z,11.68
2024-03-02T16:00:00.835Z,11.71
2024-03-02T16:02:27.386Z,11.60
2024-03-02T16:04:54.046Z,11.54
2024-03-02T16:07:21.442Z,11.50
2024-03-02T16:09:48.129Z,11.48
2024-03-02T16:12:14.788Z,11.61
2024-03-02T16:14:41.771Z,11.56
2024-03-02T16:17:10.289Z,11.50
2024-03-02T16:19:40.744Z,11.54
2024-03-02T16:22:09.632Z,11.41
2024-03-02T16:24:36.482Z,11.49
2024-03-02T16:27:03.417Z,11.53
2024-03-02T16:29:30.026Z,11.51
2024-03-02T16:31:56.605Z,11.41
2024-03-02T16:34:23.474Z,11.33
2024-03-02T16:36:50.274Z,11.34
2024-03-02T16:39:17.237Z,11.35
2024-03-02T16:41:48.109Z,11.21
2024-03-02T16:44:15.139Z,11.24
2024-03-02T16:46:41.958Z,11.20
2024-03-02T16:49:11.562Z,11.29
2024-03-02T16:51:44.866Z,11.24
2024-03-02T16:54:11.643Z,11.23
2024-03-02T16:56:41.939Z,11.24
2024-03-02T16:59:08.878Z,11.22
2024-03-02T17:01:35.863Z,11.11
2024-03-02T17:04:05.329Z,11.17
2024-03-02T17:06:32.360Z,11.08
2024-03-02T17:08:58.996Z,11.00
2024-03-02T17:11:29.327Z,11.01
2024-03-02T17:13:58.959Z,10.95
2024-03-02T17:16:26.316Z,10.95
2024-03-02T17:18:53.723Z,10.90
2024-03-02T17:21:21.103Z,10.85
2024-03-02T17:23:48.232Z,10.78
2024-03-02T17:26:15.049Z,10.82
2024-03-02T17:28:43.097Z,10.82
2024-03-02T17:31:10.426Z,10.84
2024-03-02T17:33:37.555Z,10.86
2024-03-02T17:36:05.294Z,10.91
2024-03-02T17:38:32.709Z,10.95
2024-03-02T17:41:01.858Z,10.94
2024-03-02T17:43:28.548Z,10.91
2024-03-02T17:45:55.403Z,10.90
2024-03-02T17:48:23.200Z,10.82
2024-03-02T17:50:51.126Z,10.78
2024-03-02T17:53:17.970Z,10.64
2024-03-02T17:55:45.091Z,10.62
2024-03-02T17:58:11.856Z,10.65
2024-03-02T18:00:38.703Z,10.54
2024-03-02T18:03:08.784Z,10.55
2024-03-02T18:05:38.269Z,10.53
2024-03-02T18:08:05.371Z,10.50
2024-03-02T18:10:32.878Z,10.47
2024-03-02T18:12:59.741Z,10.53
2024-03-02T18:15:27.142Z,10.51
2024-03-02T18:17:53.845Z,10.52
2024-03-02T18:20:20.518Z,10.51
2024-03-02T18:22:47.090Z,10.51
2024-03-02T18:25:13.759Z,10.48
2024-03-02T18:27:40.472Z,10.35
2024-03-02T18:30:11.918Z,10.34
2024-03-02T18:32:39.621Z,10.34
2024-03-02T18:35:09.463Z,10.33
2024-03-02T18:37:37.868Z,10.35
2024-03-02T18:40:07.927Z,10.35
2024-03-02T18:42:34.868Z,10.35
2024-03-02T18:45:06.091Z,10.32
2024-03-02T18:47:35.985Z,10.35
2024-03-02T18:50:05.944Z,10.31
2024-03-02T18:52:36.062Z,10.25
2024-03-02T18:55:03.985Z,10.32
2024-03-02T18:57:34.195Z,10.14
2024-03-02T19:00:00.837Z,10.15
2024-03-02T19:02:29.525Z,10.17
2024-03-02T19:04:56.335Z,10.06
2024-03-02T19:07:23.722Z,10.02
2024-03-02T19:09:50.389Z,10.16
2024-03-02T19:12:16.902Z,10.16
2024-03-02T19:14:43.643Z,10.21
2024-03-02T19:17:10.178Z,10.17
2024-03-02T19:19:38.308Z,10.23
2024-03-02T19:22:10.911Z,10.26
2024-03-02T19:24:41.070Z,10.32
2024-03-02T19:27:07.732Z,10.31
2024-03-02T19:29:34.475Z,10.23
2024-03-02T19:32:05.374Z,10.32
2024-03-02T19:34:34.993Z,10.29
2024-03-02T19:37:01.723Z,10.36
2024-03-02T19:39:29.474Z,10.35
2024-03-02T19:41:56.606Z,10.33
2024-03-02T19:44:30.869Z,10.36
2024-03-02T19:46:57.873Z,10.27
2024-03-02T19:49:25.471Z,10.28
2024-03-02T19:51:52.422Z,10.27
2024-03-02T19:54:19.069Z,10.26
2024-03-02T19:56:47.253Z,10.19
2024-03-02T19:59:14.936Z,10.14
2024-03-02T20:01:42.706Z,10.06
2024-03-02T20:04:10.896Z,10.07
2024-03-02T20:06:37.758Z,9.91
2024-03-02T20:09:04.445Z,10.08
2024-03-02T20:11:34.871Z,10.12
2024-03-02T20:14:01.790Z,10.11
2024-03-02T20:16:28.418Z,10.10
2024-03-02T20:18:55.131Z,10.07
2024-03-02T20:21:21.907Z,10.17
2024-03-02T20:23:49.292Z,10.10
2024-03-02T20:26:18.186Z,10.02
2024-03-02T20:28:46.890Z,9.96
2024-03-02T20:31:15.970Z,9.88
2024-03-02T20:33:43.940Z,9.86
2024-03-02T20:36:16.196Z,9.73
2024-03-02T20:38:43.772Z,9.67
2024-03-02T20:41:21.392Z,9.67
2024-03-02T20:43:49.574Z,9.66
2024-03-02T20:46:17.415Z,9.70
2024-03-02T20:48:47.910Z,9.62
2024-03-02T20:51:15.842Z,9.64
2024-03-02T20:53:43.659Z,9.58
2024-03-02T20:56:11.053Z,9.59
2024-03-02T20:58:38.822Z,9.56
2024-03-02T21:01:07.621Z,9.52
2024-03-02T21:03:39.134Z,9.54
2024-03-02T21:06:06.486Z,9.63
2024-03-02T21:08:34.136Z,9.50
2024-03-02T21:11:03.684Z,9.57
2024-03-02T21:13:34.056Z,9.61
2024-03-02T21:16:01.613Z,9.58
2024-03-02T21:18:28.971Z,9.54
2024-03-02T21:20:56.362Z,9.59
2024-03-02T21:23:23.983Z,9.65
2024-03-02T21:25:51.561Z,9.67
2024-03-02T21:28:19.091Z,9.75
2024-03-02T21:30:47.228Z,9.72
2024-03-02T21:33:14.069Z,9.75
2024-03-02T21:35:40.648Z,9.85
2024-03-02T21:38:08.418Z,9.83
2024-03-02T21:40:35.217Z,9.83
2024-03-02T21:43:02.135Z,9.83
2024-03-02T21:45:29.013Z,9.83
2024-03-02T21:47:55.599Z,9.86
2024-03-02T21:50:22.260Z,9.89
2024-03-02T21:52:50.449Z,9.91
2024-03-02T21:55:17.394Z,9.89
2024-03-02T21:57:45.560Z,9.94
2024-03-02T22:00:12.383Z,9.98
2024-03-02T22:02:42.032Z,9.96
2024-03-02T22:05:08.703Z,9.91
2024-03-02T22:07:35.466Z,9.95
2024-03-02T22:10:02.440Z,9.90
2024-03-02T22:12:29.154Z,9.88
2024-03-02T22:14:55.833Z,9.77
2024-03-02T22:17:23.744Z,9.80
2024-03-02T22:19:50.530Z,9.77
2024-03-02T22:22:17.267Z,9.61
2024-03-02T22:24:44.234Z,9.62
2024-03-02T22:27:10.818Z,9.72
2024-03-02T22:29:38.955Z,9.72
2024-03-02T22:32:06.852Z,9.62
2024-03-02T22:34:33.480Z,9.55
2024-03-02T22:37:00.141Z,9.54
2024-03-02T22:39:27.885Z,9.44
2024-03-02T22:41:56.699Z,9.39
2024-03-02T22:44:24.670Z,9.32
2024-03-02T22:46:52.918Z,9.31
2024-03-02T22:49:20.940Z,9.28
2024-03-02T22:51:48.421Z,9.31
2024-03-02T22:54:17.492Z,9.32
2024-03-02T22:56:46.662Z,9.32
2024-03-02T22:59:14.387Z,9.31
2024-03-02T23:01:42.899Z,9.21
2024-03-02T23:04:10.622Z,9.08
2024-03-02T23:06:38.128Z,9.02
2024-03-02T23:09:06.346Z,9.18
2024-03-02T23:11:33.567Z,9.21
2024-03-02T23:14:01.446Z,9.16
2024-03-02T23:16:30.344Z,9.26
2024-03-02T23:18:58.247Z,9.18
2024-03-02T23:21:26.031Z,9.33
2024-03-02T23:23:54.433Z,9.27
2024-03-02T23:26:24.439Z,9.28
2024-03-02T23:28:52.036Z,9.25
2024-03-02T23:31:20.043Z,8.98
2024-03-02T23:33:50.647Z,8.94
2024-03-02T23:36:18.354Z,8.98
2024-03-02T23:38:45.736Z,8.92
2024-03-02T23:41:14.168Z,8.96
2024-03-02T23:43:42.049Z,8.90
2024-03-02T23:46:12.906Z,8.91
2024-03-02T23:48:40.900Z,8.91
2024-03-02T23:51:08.886Z,8.81
2024-03-02T23:53:36.557Z,8.77
2024-03-02T23:56:15.196Z,8.71
2024-03-02T23:58:42.836Z,8.63
